createdAt,value
2019-05-21T00:00:19.130Z,8.50
2019-05-21T00:02:47.614Z,8.00
2019-05-21T00:05:16.214Z,8.10
2019-05-21T00:07:44.677Z,7.42
2019-05-21T00:10:13.777Z,7.92
2019-05-21T00:12:42.259Z,8.08
2019-05-21T00:15:10.809Z,8.00
2019-05-21T00:17:39.357Z,7.25
2019-05-21T00:20:08.340Z,7.45
2019-05-21T00:22:36.892Z,7.45
2019-05-21T00:25:06.337Z,7.33
2019-05-21T00:27:34.793Z,7.10
2019-05-21T00:30:39.729Z,7.22
2019-05-21T00:33:20.010Z,7.40
2019-05-21T00:36:26.642Z,7.17
2019-05-21T00:39:31.374Z,7.30
2019-05-21T00:42:02.390Z,7.37
2019-05-21T00:44:37.289Z,6.80
2019-05-21T00:47:08.960Z,7.12
2019-05-21T00:49:37.564Z,7.03
2019-05-21T00:52:08.828Z,7.22
2019-05-21T00:54:36.861Z,7.70
2019-05-21T00:57:05.460Z,8.03
2019-05-21T00:59:34.002Z,8.90
2019-05-21T01:02:02.494Z,8.73
2019-05-21T01:04:31.174Z,9.10
2019-05-21T01:06:59.679Z,9.18
2019-05-21T01:09:28.165Z,9.10
2019-05-21T01:11:56.631Z,9.73
2019-05-21T01:14:25.080Z,9.98
2019-05-21T01:16:53.572Z,9.80
2019-05-21T01:19:22.035Z,10.03
2019-05-21T01:21:50.576Z,10.38
2019-05-21T01:24:19.112Z,10.03
2019-05-21T01:26:47.651Z,10.00
2019-05-21T01:29:16.199Z,9.75
2019-05-21T01:31:44.688Z,9.90
2019-05-21T01:34:13.292Z,9.65
2019-05-21T01:36:41.764Z,10.35
2019-05-21T01:39:13.576Z,10.28
2019-05-21T01:41:42.050Z,11.80
2019-05-21T01:44:10.515Z,11.05
2019-05-21T01:46:38.992Z,11.03
2019-05-21T01:49:07.467Z,10.82
2019-05-21T01:51:35.931Z,10.53
2019-05-21T01:54:04.748Z,11.10
2019-05-21T01:56:33.206Z,11.10
2019-05-21T01:59:01.675Z,11.38
2019-05-21T02:01:30.152Z,11.65
2019-05-21T02:03:58.616Z,11.15
2019-05-21T02:06:27.072Z,11.43
2019-05-21T02:08:55.556Z,12.07
2019-05-21T02:11:24.022Z,11.45
2019-05-21T02:13:52.551Z,12.00
2019-05-21T02:16:21.029Z,11.93
2019-05-21T02:18:49.492Z,11.48
2019-05-21T02:21:18.805Z,12.75
2019-05-21T02:23:47.280Z,12.33
2019-05-21T02:26:15.755Z,12.23
2019-05-21T02:28:44.274Z,11.45
2019-05-21T02:31:12.760Z,12.20
2019-05-21T02:33:41.260Z,12.30
2019-05-21T02:36:09.781Z,12.00
2019-05-21T02:38:38.335Z,11.65
2019-05-21T02:41:06.819Z,11.08
2019-05-21T02:43:35.435Z,11.83
2019-05-21T02:46:04.223Z,12.47
2019-05-21T02:48:32.775Z,12.18
2019-05-21T02:51:01.271Z,12.13
2019-05-21T02:53:34.137Z,12.33
2019-05-21T02:56:00.027Z,12.15
2019-05-21T02:58:28.499Z,11.90
2019-05-21T03:01:01.420Z,11.60
2019-05-21T03:03:31.606Z,12.43
2019-05-21T03:06:12.940Z,11.95
2019-05-21T03:08:30.291Z,12.18
2019-05-21T03:10:58.832Z,11.85
2019-05-21T03:13:27.360Z,11.53
2019-05-21T03:15:56.055Z,12.37
2019-05-21T03:18:24.513Z,11.45
2019-05-21T03:20:52.982Z,11.97
2019-05-21T03:23:21.608Z,11.12
2019-05-21T03:25:50.156Z,11.60
2019-05-21T03:28:18.682Z,11.38
2019-05-21T03:30:47.168Z,11.38
2019-05-21T03:33:15.699Z,10.65
2019-05-21T03:35:44.214Z,10.68
2019-05-21T03:38:12.757Z,11.10
2019-05-21T03:40:41.294Z,10.78
2019-05-21T03:43:09.836Z,11.22
2019-05-21T03:45:38.395Z,10.38
2019-05-21T03:48:06.867Z,10.50
2019-05-21T03:50:35.335Z,10.50
2019-05-21T03:53:03.890Z,10.10
2019-05-21T03:55:32.350Z,10.18
2019-05-21T03:58:00.815Z,9.55
2019-05-21T04:00:29.383Z,9.53
2019-05-21T04:02:57.832Z,9.40
2019-05-21T04:05:26.440Z,8.10
2019-05-21T04:07:55.135Z,8.55
2019-05-21T04:10:23.922Z,8.48
2019-05-21T04:13:08.210Z,8.00
2019-05-21T04:15:43.235Z,8.43
2019-05-21T04:18:19.575Z,7.70
2019-05-21T04:20:48.053Z,8.18
2019-05-21T04:23:16.589Z,7.53
2019-05-21T04:25:45.082Z,7.15
2019-05-21T04:28:13.620Z,7.40
2019-05-21T04:30:42.137Z,7.10
2019-05-21T04:33:10.623Z,7.22
2019-05-21T04:35:39.093Z,7.30
2019-05-21T04:38:07.621Z,7.20
2019-05-21T04:40:36.163Z,6.75
2019-05-21T04:43:04.686Z,6.65
2019-05-21T04:45:33.163Z,6.90
2019-05-21T04:48:01.656Z,6.58
2019-05-21T04:50:30.177Z,6.60
2019-05-21T04:52:58.648Z,6.42
2019-05-21T04:55:27.135Z,6.87
2019-05-21T04:57:55.611Z,6.83
2019-05-21T05:00:24.060Z,7.17
2019-05-21T05:02:52.556Z,6.72
2019-05-21T05:05:21.201Z,6.58
2019-05-21T05:07:49.759Z,6.42
2019-05-21T05:10:18.395Z,6.67
2019-05-21T05:12:46.846Z,6.75
2019-05-21T05:15:15.482Z,6.80
2019-05-21T05:17:43.979Z,6.20
2019-05-21T05:20:12.975Z,7.08
2019-05-21T05:22:41.456Z,6.80
2019-05-21T05:25:10.270Z,7.47
2019-05-21T05:27:38.759Z,6.90
2019-05-21T05:30:08.053Z,7.33
2019-05-21T05:32:36.578Z,6.80
2019-05-21T05:35:06.720Z,7.08
2019-05-21T05:37:44.267Z,7.12
2019-05-21T05:40:09.292Z,7.10
2019-05-21T05:42:37.788Z,7.35
2019-05-21T05:45:08.294Z,7.47
2019-05-21T05:47:36.762Z,6.75
2019-05-21T05:50:24.157Z,7.03
2019-05-21T05:52:52.651Z,6.97
2019-05-21T05:55:21.115Z,6.58
2019-05-21T05:57:49.586Z,6.15
2019-05-21T06:00:18.472Z,6.97
2019-05-21T06:02:47.008Z,6.45
2019-05-21T06:05:16.091Z,6.83
2019-05-21T06:07:58.836Z,6.78
2019-05-21T06:10:15.000Z,6.72
2019-05-21T06:12:43.611Z,6.97
2019-05-21T06:15:13.033Z,6.67
2019-05-21T06:17:41.520Z,7.10
2019-05-21T06:20:10.235Z,6.72
2019-05-21T06:22:38.797Z,7.08
2019-05-21T06:25:08.544Z,7.42
2019-05-21T06:27:37.020Z,6.70
2019-05-21T06:30:07.913Z,7.03
2019-05-21T06:35:06.448Z,7.05
2019-05-21T06:37:34.915Z,7.35
2019-05-21T06:40:05.977Z,6.67
2019-05-21T06:42:35.571Z,7.15
2019-05-21T06:45:06.232Z,6.87
2019-05-21T06:47:36.824Z,7.20
2019-05-21T06:50:06.149Z,6.55
2019-05-21T06:52:34.766Z,6.58
2019-05-21T06:55:04.264Z,6.65
2019-05-21T06:57:32.765Z,6.45
2019-05-21T07:00:01.278Z,6.08
2019-05-21T07:02:30.794Z,6.10
2019-05-21T07:04:59.424Z,6.25
2019-05-21T07:07:27.950Z,6.40
2019-05-21T07:09:56.552Z,6.45
2019-05-21T07:12:26.189Z,6.17
2019-05-21T07:15:03.931Z,6.53
2019-05-21T07:17:32.406Z,6.65
2019-05-21T07:20:00.860Z,5.83
2019-05-21T07:22:29.429Z,6.20
2019-05-21T07:24:58.053Z,5.83
2019-05-21T07:27:26.587Z,5.37
2019-05-21T07:29:55.066Z,5.62
2019-05-21T07:32:24.588Z,5.28
2019-05-21T07:34:55.137Z,5.65
2019-05-21T07:37:24.749Z,5.60
2019-05-21T07:39:53.268Z,5.67
2019-05-21T07:42:25.709Z,4.92
2019-05-21T07:44:54.300Z,4.62
2019-05-21T07:47:23.976Z,4.33
2019-05-21T07:49:53.602Z,4.53
2019-05-21T07:52:23.224Z,4.37
2019-05-21T07:54:51.790Z,4.97
2019-05-21T07:57:20.505Z,5.20
2019-05-21T07:59:49.068Z,5.47
2019-05-21T08:02:18.665Z,4.50
2019-05-21T08:04:48.267Z,4.10
2019-05-21T08:07:17.964Z,3.58
2019-05-21T08:09:46.571Z,4.00
2019-05-21T08:12:35.506Z,4.10
2019-05-21T08:14:45.352Z,4.17
2019-05-21T08:17:14.883Z,4.17
2019-05-21T08:19:44.493Z,3.92
2019-05-21T08:22:13.186Z,3.95
2019-05-21T08:24:42.783Z,4.35
2019-05-21T08:27:12.408Z,3.37
2019-05-21T08:29:43.035Z,3.65
2019-05-21T08:34:41.608Z,3.27
2019-05-21T08:37:10.098Z,2.92
2019-05-21T08:39:38.577Z,2.70
2019-05-21T08:42:07.371Z,3.10
2019-05-21T08:44:35.970Z,3.00
2019-05-21T08:47:04.432Z,3.35
2019-05-21T08:49:32.889Z,2.87
2019-05-21T08:52:01.619Z,4.22
2019-05-21T08:54:50.282Z,3.95
2019-05-21T08:57:20.267Z,3.85
2019-05-21T08:59:53.569Z,3.97
2019-05-21T09:02:24.048Z,3.72
2019-05-21T09:04:52.648Z,3.62
2019-05-21T09:07:21.352Z,3.95
2019-05-21T09:09:51.766Z,3.98
2019-05-21T09:12:20.214Z,3.17
2019-05-21T09:14:49.901Z,3.37
2019-05-21T09:17:18.459Z,2.77
2019-05-21T09:19:47.852Z,2.85
2019-05-21T09:22:16.650Z,2.58
2019-05-21T09:24:45.150Z,2.10
2019-05-21T09:27:13.794Z,2.33
2019-05-21T09:29:42.405Z,2.40
2019-05-21T09:32:10.878Z,1.90
2019-05-21T09:34:48.785Z,2.20
2019-05-21T09:37:19.042Z,1.85
2019-05-21T09:39:40.021Z,1.70
2019-05-21T09:42:09.558Z,1.80
2019-05-21T09:44:38.039Z,2.00
2019-05-21T09:47:07.756Z,2.27
2019-05-21T09:49:38.405Z,2.52
2019-05-21T09:52:06.978Z,2.70
2019-05-21T09:54:39.610Z,3.00
2019-05-21T09:57:12.023Z,2.72
2019-05-21T09:59:43.489Z,3.10
2019-05-21T10:02:23.702Z,2.92
2019-05-21T10:04:52.407Z,3.10
2019-05-21T10:07:38.332Z,3.35
2019-05-21T10:09:51.431Z,3.10
2019-05-21T10:12:20.140Z,3.52
2019-05-21T10:14:48.673Z,3.17
2019-05-21T10:17:18.392Z,2.47
2019-05-21T10:19:48.069Z,2.60
2019-05-21T10:22:17.689Z,2.10
2019-05-21T10:24:52.033Z,2.00
2019-05-21T10:27:20.554Z,1.60
2019-05-21T10:29:50.121Z,1.98
2019-05-21T10:32:18.660Z,2.02
2019-05-21T10:34:47.379Z,1.85
2019-05-21T10:37:15.917Z,1.77
2019-05-21T10:39:44.662Z,2.20
2019-05-21T10:42:13.256Z,2.33
2019-05-21T10:44:41.806Z,2.45
2019-05-21T10:47:10.290Z,2.70
2019-05-21T10:49:38.741Z,2.80
2019-05-21T10:52:08.388Z,2.77
2019-05-21T10:54:37.010Z,2.77
2019-05-21T10:57:06.674Z,2.50
2019-05-21T11:02:05.863Z,2.20
2019-05-21T11:04:36.120Z,2.50
2019-05-21T11:07:05.889Z,3.12
2019-05-21T11:09:35.571Z,2.85
2019-05-21T11:12:07.121Z,3.12
2019-05-21T11:14:35.746Z,3.05
2019-05-21T11:17:06.256Z,3.00
2019-05-21T11:19:36.780Z,2.80
2019-05-21T11:22:05.404Z,3.30
2019-05-21T11:24:34.057Z,3.10
2019-05-21T11:27:05.517Z,3.10
2019-05-21T11:29:34.103Z,2.80
2019-05-21T11:32:02.618Z,2.65
2019-05-21T11:34:31.104Z,2.90
2019-05-21T11:36:59.702Z,2.80
2019-05-21T11:39:28.314Z,3.60
2019-05-21T11:41:58.094Z,3.35
2019-05-21T11:46:55.345Z,2.65
2019-05-21T11:49:23.991Z,2.80
2019-05-21T11:51:52.440Z,2.70
2019-05-21T11:54:21.945Z,3.35
2019-05-21T11:56:50.460Z,3.10
2019-05-21T11:59:20.064Z,3.20
2019-05-21T12:01:53.953Z,3.22
2019-05-21T12:04:22.427Z,3.10
2019-05-21T12:06:51.055Z,2.95
2019-05-21T12:09:19.540Z,2.40
2019-05-21T12:11:49.955Z,2.67
2019-05-21T12:14:18.548Z,2.50
2019-05-21T12:16:47.055Z,2.83
2019-05-21T12:19:15.595Z,3.02
2019-05-21T12:21:44.066Z,2.47
2019-05-21T12:24:12.810Z,2.50
2019-05-21T12:26:42.520Z,2.35
2019-05-21T12:29:11.036Z,2.75
2019-05-21T12:31:39.596Z,2.42
2019-05-21T12:34:08.055Z,2.72
2019-05-21T12:36:37.724Z,2.67
2019-05-21T12:39:14.115Z,2.80
2019-05-21T12:41:38.931Z,2.52
2019-05-21T12:44:07.593Z,2.62
2019-05-21T12:46:36.247Z,2.50
2019-05-21T12:49:04.885Z,2.90
2019-05-21T12:51:33.416Z,2.87
2019-05-21T12:54:02.135Z,2.70
2019-05-21T12:56:31.733Z,2.47
2019-05-21T12:59:00.970Z,2.30
2019-05-21T13:01:29.772Z,2.62
2019-05-21T13:04:00.451Z,1.80
2019-05-21T13:06:29.244Z,2.10
2019-05-21T13:08:57.985Z,1.87
2019-05-21T13:11:26.688Z,2.12
2019-05-21T13:13:55.849Z,2.22
2019-05-21T13:16:25.042Z,2.37
2019-05-21T13:18:53.979Z,2.10
2019-05-21T13:21:23.805Z,2.40
2019-05-21T13:23:52.612Z,2.10
2019-05-21T13:26:21.593Z,2.50
2019-05-21T13:28:51.577Z,2.10
2019-05-21T13:33:49.328Z,2.50
2019-05-21T13:36:19.162Z,2.60
2019-05-21T13:38:47.809Z,2.08
2019-05-21T13:41:16.979Z,2.02
2019-05-21T13:43:45.744Z,2.27
2019-05-21T13:46:15.601Z,2.08
2019-05-21T13:48:46.891Z,2.45
2019-05-21T13:51:14.736Z,2.52
2019-05-21T13:53:43.401Z,2.50
2019-05-21T13:56:12.230Z,1.80
2019-05-21T13:58:41.999Z,2.05
2019-05-21T14:01:15.997Z,1.55
2019-05-21T14:03:44.794Z,2.17
2019-05-21T14:06:13.443Z,2.10
2019-05-21T14:08:43.355Z,2.40
2019-05-21T14:13:42.583Z,2.00
2019-05-21T14:16:11.392Z,2.00
2019-05-21T14:18:40.135Z,2.00
2019-05-21T14:21:10.938Z,1.90
2019-05-21T14:23:44.064Z,1.80
2019-05-21T14:26:12.963Z,1.90
2019-05-21T14:28:41.561Z,1.70
2019-05-21T14:31:11.267Z,1.92
2019-05-21T14:33:40.801Z,1.67
2019-05-21T14:36:09.410Z,1.77
2019-05-21T14:38:38.027Z,1.82
2019-05-21T14:41:07.699Z,1.70
2019-05-21T14:43:36.278Z,1.92
2019-05-21T14:46:06.309Z,2.15
2019-05-21T14:51:05.526Z,2.35
2019-05-21T14:53:34.117Z,2.62
2019-05-21T14:56:04.941Z,2.37
2019-05-21T14:58:33.524Z,2.33
2019-05-21T15:01:02.105Z,2.30
2019-05-21T15:03:31.838Z,2.00
2019-05-21T15:06:00.370Z,2.00
2019-05-21T15:08:29.987Z,2.17
2019-05-21T15:10:58.585Z,2.02
2019-05-21T15:13:27.204Z,2.80
2019-05-21T15:15:55.879Z,2.20
2019-05-21T15:18:24.413Z,2.50
2019-05-21T15:23:47.137Z,2.25
2019-05-21T15:26:16.127Z,2.00
2019-05-21T15:28:44.654Z,2.10
2019-05-21T15:31:13.257Z,1.98
2019-05-21T15:33:41.803Z,1.75
2019-05-21T15:36:10.251Z,2.10
2019-05-21T15:38:49.279Z,1.80
2019-05-21T15:41:12.173Z,1.80
2019-05-21T15:43:39.143Z,1.92
2019-05-21T15:46:07.722Z,1.70
2019-05-21T15:48:36.214Z,1.85
2019-05-21T15:51:04.696Z,1.90
2019-05-21T15:53:34.213Z,1.80
2019-05-21T15:56:03.803Z,1.90
2019-05-21T15:58:32.329Z,1.55
2019-05-21T16:01:01.938Z,1.40
2019-05-21T16:03:30.437Z,1.57
2019-05-21T16:05:59.028Z,1.30
2019-05-21T16:08:27.673Z,1.75
2019-05-21T16:10:56.483Z,1.40
2019-05-21T16:13:25.059Z,1.50
2019-05-21T16:15:54.754Z,1.45
2019-05-21T16:18:23.467Z,1.30
2019-05-21T16:20:53.061Z,1.27
2019-05-21T16:23:21.722Z,1.30
2019-05-21T16:25:50.437Z,1.42
2019-05-21T16:28:18.920Z,1.20
2019-05-21T16:30:49.429Z,1.10
2019-05-21T16:33:18.197Z,1.37
2019-05-21T16:35:46.826Z,1.55
2019-05-21T16:38:16.997Z,1.67
2019-05-21T16:40:45.596Z,1.25
2019-05-21T16:43:15.122Z,1.42
2019-05-21T16:45:43.569Z,1.30
2019-05-21T16:48:12.128Z,1.37
2019-05-21T16:50:42.975Z,1.75
2019-05-21T16:53:11.817Z,1.40
2019-05-21T16:55:40.451Z,1.45
2019-05-21T16:58:09.046Z,1.90
2019-05-21T17:00:37.808Z,1.92
2019-05-21T17:03:06.846Z,1.60
2019-05-21T17:05:35.339Z,1.65
2019-05-21T17:08:08.896Z,1.70
2019-05-21T17:10:37.375Z,1.67
2019-05-21T17:13:07.002Z,1.77
2019-05-21T17:15:35.524Z,1.82
2019-05-21T17:18:06.109Z,1.72
2019-05-21T17:20:34.662Z,1.70
2019-05-21T17:23:03.322Z,2.05
2019-05-21T17:25:31.989Z,1.85
2019-05-21T17:28:01.738Z,1.60
2019-05-21T17:30:30.419Z,1.95
2019-05-21T17:33:01.009Z,1.60
2019-05-21T17:37:58.428Z,1.70
2019-05-21T17:40:28.295Z,1.75
2019-05-21T17:42:56.802Z,1.93
2019-05-21T17:45:25.484Z,1.65
2019-05-21T17:47:54.996Z,1.80
2019-05-21T17:50:23.711Z,1.90
2019-05-21T17:52:53.307Z,2.20
2019-05-21T17:55:21.775Z,2.00
2019-05-21T17:57:50.665Z,2.22
2019-05-21T18:00:23.808Z,2.10
2019-05-21T18:02:53.720Z,2.20
2019-05-21T18:05:24.474Z,2.00
2019-05-21T18:10:22.099Z,2.60
2019-05-21T18:12:52.717Z,2.40
2019-05-21T18:15:21.673Z,2.35
2019-05-21T18:17:51.230Z,2.20
2019-05-21T18:20:20.870Z,2.30
2019-05-21T18:22:52.003Z,2.72
2019-05-21T18:25:23.387Z,2.70
2019-05-21T18:27:51.931Z,2.27
2019-05-21T18:30:20.658Z,2.72
2019-05-21T18:32:50.661Z,2.50
2019-05-21T18:35:19.256Z,2.40
2019-05-21T18:37:49.111Z,2.70
2019-05-21T18:40:21.133Z,2.40
2019-05-21T18:42:49.816Z,3.17
2019-05-21T18:45:18.435Z,5.65
2019-05-21T18:47:46.952Z,5.10
2019-05-21T18:50:16.585Z,4.47
2019-05-21T18:52:49.477Z,4.10
2019-05-21T18:55:17.253Z,2.98
2019-05-21T18:57:46.981Z,2.20
2019-05-21T19:00:15.855Z,2.30
2019-05-21T19:02:45.888Z,3.08
2019-05-21T19:05:14.907Z,2.87
2019-05-21T19:07:44.444Z,2.70
2019-05-21T19:10:14.219Z,2.50
2019-05-21T19:12:42.778Z,2.20
2019-05-21T19:15:11.833Z,2.20
2019-05-21T19:17:40.421Z,1.80
2019-05-21T19:20:12.358Z,1.72
2019-05-21T19:22:40.921Z,1.65
2019-05-21T19:25:09.677Z,1.67
2019-05-21T19:27:38.462Z,1.80
2019-05-21T19:30:09.675Z,1.80
2019-05-21T19:32:39.362Z,1.90
2019-05-21T19:35:08.600Z,2.10
2019-05-21T19:37:38.329Z,1.50
2019-05-21T19:40:09.035Z,1.60
2019-05-21T19:42:53.859Z,2.12
2019-05-21T19:45:10.962Z,1.72
2019-05-21T19:47:39.865Z,1.75
2019-05-21T19:50:08.845Z,1.70
2019-05-21T19:52:38.574Z,2.00
2019-05-21T19:55:12.656Z,2.00
2019-05-21T19:57:42.385Z,1.75
2019-05-21T20:00:12.708Z,2.08
2019-05-21T20:02:42.235Z,1.85
2019-05-21T20:05:12.064Z,1.87
2019-05-21T20:07:41.654Z,1.77
2019-05-21T20:10:10.388Z,1.80
2019-05-21T20:12:40.129Z,1.80
2019-05-21T20:15:10.327Z,1.65
2019-05-21T20:17:40.580Z,1.40
2019-05-21T20:20:10.533Z,1.55
2019-05-21T20:22:42.497Z,1.50
2019-05-21T20:25:13.126Z,1.52
2019-05-21T20:27:46.528Z,1.70
2019-05-21T20:30:21.490Z,1.70
2019-05-21T20:32:50.170Z,1.60
2019-05-21T20:35:20.349Z,1.75
2019-05-21T20:37:49.945Z,1.60
2019-05-21T20:40:18.929Z,2.00
2019-05-21T20:42:48.686Z,1.40
2019-05-21T20:45:19.248Z,1.90
2019-05-21T20:47:51.045Z,1.70
2019-05-21T20:50:21.552Z,1.92
2019-05-21T20:52:51.852Z,1.55
2019-05-21T20:55:20.390Z,1.87
2019-05-21T20:57:49.237Z,2.30
2019-05-21T21:00:23.159Z,1.80
2019-05-21T21:02:52.864Z,2.02
2019-05-21T21:05:22.345Z,1.70
2019-05-21T21:07:51.624Z,1.70
2019-05-21T21:10:20.754Z,1.82
2019-05-21T21:12:50.655Z,1.75
2019-05-21T21:15:19.332Z,2.07
2019-05-21T21:17:47.820Z,2.10
2019-05-21T21:20:16.360Z,2.30
2019-05-21T21:22:45.068Z,2.50
2019-05-21T21:25:16.534Z,2.85
2019-05-21T21:27:46.492Z,3.30
2019-05-21T21:30:15.133Z,3.27
2019-05-21T21:32:44.352Z,3.10
2019-05-21T21:35:14.767Z,3.08
2019-05-21T21:37:43.734Z,2.90
2019-05-21T21:40:14.231Z,3.10
2019-05-21T21:42:43.890Z,2.70
2019-05-21T21:45:13.832Z,3.12
2019-05-21T21:47:42.630Z,2.80
2019-05-21T21:50:13.001Z,3.00
2019-05-21T21:52:42.256Z,3.30
2019-05-21T21:55:12.363Z,3.30
2019-05-21T21:57:40.884Z,3.20
2019-05-21T22:00:30.473Z,3.30
2019-05-21T22:03:02.144Z,3.40
2019-05-21T22:05:32.117Z,2.95
2019-05-21T22:08:01.109Z,3.00
2019-05-21T22:10:30.247Z,3.05
2019-05-21T22:12:58.920Z,3.45
2019-05-21T22:15:27.550Z,3.12
2019-05-21T22:17:56.383Z,3.85
2019-05-21T22:20:25.594Z,3.67
2019-05-21T22:22:54.081Z,4.72
2019-05-21T22:25:22.767Z,5.15
2019-05-21T22:27:51.366Z,6.95
2019-05-21T22:30:20.552Z,8.58
2019-05-21T22:32:49.050Z,8.93
2019-05-21T22:35:17.575Z,8.65
2019-05-21T22:37:46.036Z,13.30
2019-05-21T22:40:14.873Z,15.08
2019-05-21T22:42:43.640Z,16.90
2019-05-21T22:45:12.639Z,16.97
2019-05-21T22:47:41.295Z,17.40
2019-05-21T22:50:10.117Z,19.23
2019-05-21T22:52:38.574Z,19.05
2019-05-21T22:55:07.486Z,18.73
2019-05-21T22:57:36.019Z,21.42
2019-05-21T23:00:06.838Z,21.17
2019-05-21T23:05:06.298Z,21.68
2019-05-21T23:07:35.037Z,22.27
2019-05-21T23:10:06.483Z,20.17
2019-05-21T23:12:35.257Z,22.25
2019-05-21T23:15:23.197Z,23.00
2019-05-21T23:17:38.529Z,21.93
2019-05-21T23:20:10.504Z,21.00
2019-05-21T23:22:40.360Z,22.82
2019-05-21T23:25:09.666Z,22.35
2019-05-21T23:27:38.929Z,21.40
2019-05-21T23:30:10.173Z,22.13
2019-05-21T23:32:39.535Z,21.95
2019-05-21T23:35:09.806Z,22.75
2019-05-21T23:37:41.167Z,23.75
2019-05-21T23:40:11.607Z,23.75
2019-05-21T23:42:41.915Z,22.22
2019-05-21T23:45:12.892Z,24.50
2019-05-21T23:50:11.256Z,23.98
2019-05-21T23:52:40.125Z,23.10
2019-05-21T23:55:09.223Z,22.67
2019-05-21T23:57:38.694Z,22.62
